Time;durP1;ratioP1;P1;durP2;ratioP2;P2;SDS_P1;SDS_P2;PMS_P1;PMS_P2;Temp;Humidity;BMP_temperature;BMP_pressure;BME280_temperature;BME280_humidity;BME280_pressure;Samples;Min_cycle;Max_cycle;Signal;HPM_P1;HPM_P2
2024/02/23 00:00:07;;;;;;;;;;;;;;;5.08;81.00;96665.80;110395;1241;69841;-61
2024/02/23 00:02:36;;;;;;;;;;;;;;;5.05;78.71;96666.52;110387;1241;69852;-61
2024/02/23 00:05:05;;;;;;;;;;;;;;;5.02;73.87;96663.23;110449;1238;60532;-61
2024/02/23 00:07:35;;;;;;;;;;;;;;;5.01;72.02;96658.32;110425;1242;60459;-61
2024/02/23 00:10:04;;;;;;;;;;;;;;;5.00;72.05;96651.66;110532;1239;72654;-61
2024/02/23 00:12:33;;;;;;;;;;;;;;;4.99;72.87;96640.84;110409;1241;68489;-62
2024/02/23 00:15:01;;;;;;;;;;;;;;;4.97;73.60;96646.84;110432;1242;69608;-61
2024/02/23 00:17:30;;;;;;;;;;;;;;;4.94;74.45;96640.28;110420;1242;60987;-61
2024/02/23 00:19:59;;;;;;;;;;;;;;;4.88;78.51;96634.44;110476;1240;60460;-61
2024/02/23 00:22:28;;;;;;;;;;;;;;;4.82;81.17;96627.22;110403;1241;70338;-61
2024/02/23 00:24:56;;;;;;;;;;;;;;;4.77;78.99;96623.02;110390;1241;69234;-62
2024/02/23 00:27:26;;;;;;;;;;;;;;;4.74;81.13;96632.91;110399;1242;69892;-61
2024/02/23 00:29:55;;;;;;;;;;;;;;;4.74;79.62;96633.27;110491;1240;60534;-61
2024/02/23 00:32:24;;;;;;;;;;;;;;;4.75;77.69;96629.56;110455;1238;60473;-62
2024/02/23 00:34:53;;;;;;;;;;;;;;;4.74;81.17;96630.95;110400;1241;72480;-61
2024/02/23 00:37:22;;;;;;;;;;;;;;;4.75;82.51;96633.33;110421;1238;69684;-62
2024/02/23 00:39:50;;;;;;;;;;;;;;;4.73;86.31;96626.92;110384;1238;69053;-61
2024/02/23 00:42:20;;;;;;;;;;;;;;;4.76;80.50;96622.75;110370;1242;60540;-61
2024/02/23 00:44:49;;;;;;;;;;;;;;;4.80;77.38;96612.69;110412;1240;60468;-61
2024/02/23 00:47:18;;;;;;;;;;;;;;;4.81;77.82;96607.27;110415;1238;71166;-61
2024/02/23 00:49:46;;;;;;;;;;;;;;;4.83;78.40;96614.20;110429;1243;69214;-62
2024/02/23 00:52:16;;;;;;;;;;;;;;;4.85;79.41;96615.60;110437;1242;69885;-61
2024/02/23 00:54:44;;;;;;;;;;;;;;;4.87;79.92;96617.56;110451;1241;60518;-62
2024/02/23 00:57:13;;;;;;;;;;;;;;;4.87;83.63;96618.80;110392;1241;60477;-61
2024/02/23 00:59:42;;;;;;;;;;;;;;;4.92;82.26;96617.98;110456;1241;72079;-61
2024/02/23 01:02:10;;;;;;;;;;;;;;;4.96;81.00;96617.20;110383;1238;69302;-61
2024/02/23 01:04:39;;;;;;;;;;;;;;;5.02;77.88;96614.74;110431;1241;69211;-62
2024/02/23 01:07:08;;;;;;;;;;;;;;;5.09;77.05;96615.84;110349;1238;60561;-61
2024/02/23 01:09:36;;;;;;;;;;;;;;;5.16;76.74;96611.46;110391;1240;60431;-61
2024/02/23 01:12:05;;;;;;;;;;;;;;;5.21;77.35;96616.48;110392;1242;72759;-62
2024/02/23 01:14:34;;;;;;;;;;;;;;;5.26;78.63;96617.00;110373;1240;69782;-61
2024/02/23 01:17:03;;;;;;;;;;;;;;;5.31;77.64;96608.59;110367;1241;69127;-62
2024/02/23 01:19:32;;;;;;;;;;;;;;;5.34;78.63;96607.86;110414;1241;60457;-62
2024/02/23 01:22:01;;;;;;;;;;;;;;;5.38;79.79;96612.13;110596;1241;60492;-61
2024/02/23 01:24:30;;;;;;;;;;;;;;;5.40;81.08;96615.56;110389;1241;72247;-61
2024/02/23 01:26:58;;;;;;;;;;;;;;;5.42;77.91;96615.29;110388;1242;69905;-61
2024/02/23 01:29:27;;;;;;;;;;;;;;;5.42;77.76;96615.44;110357;1240;69331;-61
2024/02/23 01:31:56;;;;;;;;;;;;;;;5.42;77.93;96614.98;110376;1241;60473;-61
2024/02/23 01:34:25;;;;;;;;;;;;;;;5.42;77.94;96613.77;110431;1240;60479;-61
2024/02/23 01:36:53;;;;;;;;;;;;;;;5.43;77.47;96616.79;110351;1238;72148;-61
2024/02/23 01:39:22;;;;;;;;;;;;;;;5.45;77.59;96609.90;110514;1241;68156;-62
2024/02/23 01:41:51;;;;;;;;;;;;;;;5.48;76.22;96609.67;110596;1238;69086;-61
2024/02/23 01:44:21;;;;;;;;;;;;;;;5.52;75.53;96601.81;110522;1240;60554;-62
2024/02/23 01:46:50;;;;;;;;;;;;;;;5.56;77.09;96605.23;110438;1238;60531;-61
2024/02/23 01:49:20;;;;;;;;;;;;;;;5.59;76.25;96603.77;110448;1241;72784;-61
2024/02/23 01:51:49;;;;;;;;;;;;;;;5.63;75.99;96604.23;110480;1240;69913;-61
2024/02/23 01:54:17;;;;;;;;;;;;;;;5.67;76.17;96601.59;110372;1240;69297;-62
2024/02/23 01:56:46;;;;;;;;;;;;;;;5.70;76.12;96600.67;110504;1241;60846;-61
2024/02/23 01:59:17;;;;;;;;;;;;;;;5.74;76.50;96597.69;110436;1242;60384;-61
2024/02/23 02:01:45;;;;;;;;;;;;;;;5.76;75.07;96598.34;110647;1238;73244;-62
2024/02/23 02:04:14;;;;;;;;;;;;;;;5.79;75.97;96596.43;110455;1242;69169;-62
2024/02/23 02:06:45;;;;;;;;;;;;;;;5.81;76.24;96592.88;110515;1242;69274;-61
2024/02/23 02:09:15;;;;;;;;;;;;;;;5.82;75.50;96598.48;110382;1240;60492;-61
2024/02/23 02:11:50;;;;;;;;;;;;;;;5.80;76.36;96604.64;110522;1242;60527;-62
2024/02/23 02:14:19;;;;;;;;;;;;;;;5.81;75.98;96599.44;110499;1240;72957;-62
2024/02/23 02:16:48;;;;;;;;;;;;;;;5.80;75.37;96597.75;110491;1245;69711;-61
2024/02/23 02:19:17;;;;;;;;;;;;;;;5.79;75.24;96594.58;110428;1241;69078;-62
2024/02/23 02:21:46;;;;;;;;;;;;;;;5.76;75.89;96595.24;110517;1242;60513;-62
2024/02/23 02:24:14;;;;;;;;;;;;;;;5.74;75.90;96597.13;110454;1243;60444;-62
2024/02/23 02:26:45;;;;;;;;;;;;;;;5.72;75.64;96596.77;110526;1240;72121;-62
2024/02/23 02:29:14;;;;;;;;;;;;;;;5.68;74.38;96595.95;110596;1241;69907;-62
2024/02/23 02:31:42;;;;;;;;;;;;;;;5.65;74.83;96596.34;110541;1239;69076;-62
2024/02/23 02:34:14;;;;;;;;;;;;;;;5.62;74.64;96593.88;110488;1238;60591;-62
2024/02/23 02:36:43;;;;;;;;;;;;;;;5.60;75.01;96593.54;110402;1241;60495;-61
2024/02/23 02:39:12;;;;;;;;;;;;;;;5.58;76.67;96594.50;110368;1240;72580;-61
2024/02/23 02:41:41;;;;;;;;;;;;;;;5.58;75.79;96593.45;110500;1239;68320;-62
2024/02/23 02:44:10;;;;;;;;;;;;;;;5.60;74.91;96593.38;110422;1238;69272;-62
2024/02/23 02:46:39;;;;;;;;;;;;;;;5.61;76.43;96595.58;110585;1241;60868;-61
2024/02/23 02:49:07;;;;;;;;;;;;;;;5.60;78.10;96596.63;110561;1240;60553;-61
2024/02/23 02:51:36;;;;;;;;;;;;;;;5.60;76.47;96600.45;110407;1241;73017;-62
2024/02/23 02:54:05;;;;;;;;;;;;;;;5.58;75.81;96594.70;110395;1238;69178;-62
2024/02/23 02:56:33;;;;;;;;;;;;;;;5.57;75.18;96594.04;110415;1240;69698;-62
2024/02/23 02:59:02;;;;;;;;;;;;;;;5.57;75.31;96597.21;110382;1241;60932;-62
2024/02/23 03:01:31;;;;;;;;;;;;;;;5.56;76.34;96596.55;110391;1238;60560;-62
2024/02/23 03:03:59;;;;;;;;;;;;;;;5.57;75.39;96597.05;110396;1238;72815;-61
2024/02/23 03:06:29;;;;;;;;;;;;;;;5.57;74.90;96595.61;110417;1242;69807;-61
2024/02/23 03:08:58;;;;;;;;;;;;;;;5.58;74.51;96592.94;110423;1241;69252;-62
2024/02/23 03:11:26;;;;;;;;;;;;;;;5.60;75.38;96594.73;110373;1240;60492;-62
2024/02/23 03:13:55;;;;;;;;;;;;;;;5.61;75.62;96593.78;110402;1240;60570;-62
2024/02/23 03:16:25;;;;;;;;;;;;;;;5.62;75.50;96594.56;110405;1238;72103;-62
2024/02/23 03:18:55;;;;;;;;;;;;;;;5.62;75.26;96600.10;110465;1240;69809;-62
2024/02/23 03:21:23;;;;;;;;;;;;;;;5.63;77.09;96601.63;110425;1240;68620;-62
2024/02/23 03:23:52;;;;;;;;;;;;;;;5.63;76.67;96595.39;110334;1241;60542;-62
2024/02/23 03:26:21;;;;;;;;;;;;;;;5.62;75.46;96598.57;110416;1241;60444;-62
2024/02/23 03:28:50;;;;;;;;;;;;;;;5.62;75.06;96594.94;110394;1241;73117;-62
2024/02/23 03:31:19;;;;;;;;;;;;;;;5.61;74.29;96591.52;110445;1240;68547;-62
2024/02/23 03:33:47;;;;;;;;;;;;;;;5.58;73.35;96586.20;110458;1241;70102;-62
2024/02/23 03:36:16;;;;;;;;;;;;;;;5.52;76.34;96586.80;110387;1247;60546;-62
2024/02/23 03:38:45;;;;;;;;;;;;;;;5.46;78.23;96590.49;110410;1239;60475;-62
2024/02/23 03:41:14;;;;;;;;;;;;;;;5.41;82.14;96596.02;110399;1241;71969;-62
2024/02/23 03:43:43;;;;;;;;;;;;;;;5.39;81.14;96595.28;110500;1240;69202;-60
2024/02/23 03:46:11;;;;;;;;;;;;;;;5.36;76.66;96589.21;110384;1241;69201;-61
2024/02/23 03:48:40;;;;;;;;;;;;;;;5.30;80.57;96586.34;110414;1240;60528;-61
2024/02/23 03:51:09;;;;;;;;;;;;;;;5.26;83.04;96590.75;110465;1241;60549;-62
2024/02/23 03:53:38;;;;;;;;;;;;;;;5.22;84.18;96585.84;110366;1241;72759;-61
2024/02/23 03:56:06;;;;;;;;;;;;;;;5.20;79.81;96578.70;110380;1238;68802;-61
2024/02/23 03:58:35;;;;;;;;;;;;;;;5.19;79.37;96574.79;110416;1240;68737;-61
2024/02/23 04:01:04;;;;;;;;;;;;;;;5.19;79.76;96573.58;110431;1238;60529;-62
2024/02/23 04:03:33;;;;;;;;;;;;;;;5.19;82.70;96572.56;110508;1241;60488;-61
2024/02/23 04:06:02;;;;;;;;;;;;;;;5.20;82.42;96570.58;110502;1238;72157;-60
2024/02/23 04:08:31;;;;;;;;;;;;;;;5.21;82.03;96566.71;110422;1241;69866;-61
2024/02/23 04:11:00;;;;;;;;;;;;;;;5.21;81.78;96570.54;110488;1238;69726;-61
2024/02/23 04:13:29;;;;;;;;;;;;;;;5.21;84.21;96570.70;110346;1241;60544;-61
2024/02/23 04:15:57;;;;;;;;;;;;;;;5.23;82.84;96571.27;110425;1240;60510;-61
2024/02/23 04:18:26;;;;;;;;;;;;;;;5.25;80.52;96574.05;110388;1241;72168;-61
2024/02/23 04:20:55;;;;;;;;;;;;;;;5.27;80.32;96565.82;110406;1241;69046;-63
2024/02/23 04:23:23;;;;;;;;;;;;;;;5.29;79.40;96563.62;110255;1245;69940;-61
2024/02/23 04:25:52;;;;;;;;;;;;;;;5.32;82.86;96569.11;110349;1238;60564;-61
2024/02/23 04:28:21;;;;;;;;;;;;;;;5.35;82.09;96567.18;110413;1242;60507;-61
2024/02/23 04:30:50;;;;;;;;;;;;;;;5.38;80.52;96564.92;110431;1241;72872;-61
2024/02/23 04:33:19;;;;;;;;;;;;;;;5.41;78.63;96563.31;110429;1239;69014;-61
2024/02/23 04:35:47;;;;;;;;;;;;;;;5.42;78.69;96560.83;110355;1240;69177;-61
2024/02/23 04:38:16;;;;;;;;;;;;;;;5.44;79.30;96563.63;110343;1238;61050;-61
2024/02/23 04:40:45;;;;;;;;;;;;;;;5.45;81.64;96562.39;110517;1241;60507;-61
2024/02/23 04:43:14;;;;;;;;;;;;;;;5.46;80.03;96563.40;110414;1241;71717;-61
2024/02/23 04:45:43;;;;;;;;;;;;;;;5.49;78.62;96564.73;110396;1240;69211;-61
2024/02/23 04:48:12;;;;;;;;;;;;;;;5.53;79.66;96570.35;110420;1238;69211;-61
2024/02/23 04:50:40;;;;;;;;;;;;;;;5.57;77.84;96569.90;110494;1241;60485;-61
2024/02/23 04:53:09;;;;;;;;;;;;;;;5.62;77.91;96575.40;110370;1240;60406;-61
2024/02/23 04:55:38;;;;;;;;;;;;;;;5.68;77.04;96572.29;110448;1240;72270;-61
2024/02/23 04:58:07;;;;;;;;;;;;;;;5.74;77.57;96571.92;110424;1244;69631;-61
2024/02/23 05:00:36;;;;;;;;;;;;;;;5.77;78.62;96572.02;110343;1244;68368;-60
2024/02/23 05:03:06;;;;;;;;;;;;;;;5.79;79.94;96573.77;110392;1242;60502;-61
2024/02/23 05:05:39;;;;;;;;;;;;;;;5.81;81.05;96577.78;110349;1241;60489;-62
2024/02/23 05:08:09;;;;;;;;;;;;;;;5.81;81.85;96575.69;110387;1240;72148;-62
2024/02/23 05:10:38;;;;;;;;;;;;;;;5.81;82.07;96578.69;110410;1240;68272;-62
2024/02/23 05:13:06;;;;;;;;;;;;;;;5.81;82.46;96581.81;110402;1241;69875;-62
2024/02/23 05:15:35;;;;;;;;;;;;;;;5.80;82.46;96583.77;110401;1248;60560;-62
2024/02/23 05:18:05;;;;;;;;;;;;;;;5.79;78.64;96585.72;110351;1241;60478;-62
2024/02/23 05:20:33;;;;;;;;;;;;;;;5.79;78.41;96584.48;110490;1238;72695;-61
2024/02/23 05:23:02;;;;;;;;;;;;;;;5.82;78.28;96589.31;110425;1240;68469;-62
2024/02/23 05:25:31;;;;;;;;;;;;;;;5.85;78.05;96585.67;110401;1240;69401;-61
2024/02/23 05:28:00;;;;;;;;;;;;;;;5.86;78.40;96589.88;110364;1240;60556;-62
2024/02/23 05:30:31;;;;;;;;;;;;;;;5.89;79.73;96595.77;110418;1241;60452;-62
2024/02/23 05:33:03;;;;;;;;;;;;;;;5.90;78.29;96598.45;110385;1242;71432;-62
2024/02/23 05:35:32;;;;;;;;;;;;;;;5.92;78.45;96600.80;110437;1238;70061;-62
2024/02/23 05:38:00;;;;;;;;;;;;;;;5.93;80.04;96602.42;110370;1240;69113;-62
2024/02/23 05:40:30;;;;;;;;;;;;;;;5.94;79.60;96607.21;110371;1241;60547;-62
2024/02/23 05:42:58;;;;;;;;;;;;;;;5.95;79.87;96610.08;110363;1240;60480;-62
2024/02/23 05:45:27;;;;;;;;;;;;;;;5.97;79.60;96613.09;110377;1240;72506;-61
2024/02/23 05:47:56;;;;;;;;;;;;;;;5.98;78.46;96614.39;110416;1241;68411;-62
2024/02/23 05:50:25;;;;;;;;;;;;;;;6.01;76.61;96618.66;110344;1241;69244;-62
2024/02/23 05:52:54;;;;;;;;;;;;;;;6.04;78.53;96620.23;110404;1240;60559;-62
2024/02/23 05:55:23;;;;;;;;;;;;;;;6.06;78.69;96620.77;110391;1241;60505;-62
2024/02/23 05:57:52;;;;;;;;;;;;;;;6.08;77.34;96624.95;110350;1238;71964;-62
2024/02/23 06:00:21;;;;;;;;;;;;;;;6.10;77.45;96620.83;110351;1238;69246;-62
2024/02/23 06:02:50;;;;;;;;;;;;;;;6.13;76.22;96622.19;110424;1238;69077;-61
2024/02/23 06:05:19;;;;;;;;;;;;;;;6.19;76.65;96625.65;110398;1242;60476;-61
2024/02/23 06:07:48;;;;;;;;;;;;;;;6.31;84.46;96634.45;110454;1241;60475;-61
2024/02/23 06:10:16;;;;;;;;;;;;;;;6.42;77.54;96635.30;110365;1238;72338;-61
2024/02/23 06:12:45;;;;;;;;;;;;;;;6.50;76.56;96634.09;110472;1239;68179;-61
2024/02/23 06:15:14;;;;;;;;;;;;;;;6.57;76.24;96641.01;110496;1238;69664;-61
2024/02/23 06:17:42;;;;;;;;;;;;;;;6.63;76.66;96645.25;110114;1241;614561;-61
2024/02/23 06:20:12;;;;;;;;;;;;;;;6.70;76.52;96642.35;110478;1241;60475;-61
2024/02/23 06:22:41;;;;;;;;;;;;;;;6.77;78.07;96643.06;110546;1238;72720;-61
2024/02/23 06:25:11;;;;;;;;;;;;;;;6.85;78.45;96643.71;110440;1240;68529;-62
2024/02/23 06:27:40;;;;;;;;;;;;;;;6.97;76.65;96648.23;110423;1240;69133;-61
2024/02/23 06:30:10;;;;;;;;;;;;;;;7.09;76.26;96646.40;110444;1238;60501;-62
2024/02/23 06:32:39;;;;;;;;;;;;;;;7.22;75.25;96648.21;110430;1238;60473;-61
2024/02/23 06:35:11;;;;;;;;;;;;;;;7.35;75.44;96644.38;110460;1238;72074;-60
2024/02/23 06:37:40;;;;;;;;;;;;;;;7.50;75.72;96645.90;110411;1241;69725;-62
2024/02/23 06:40:09;;;;;;;;;;;;;;;7.65;76.30;96645.13;110380;1241;69665;-62
2024/02/23 06:42:38;;;;;;;;;;;;;;;7.84;75.18;96647.36;110388;1241;60542;-62
2024/02/23 06:45:07;;;;;;;;;;;;;;;8.02;73.98;96645.49;110394;1245;60937;-62
2024/02/23 06:47:36;;;;;;;;;;;;;;;8.22;74.03;96641.75;110387;1241;72594;-62
2024/02/23 06:50:05;;;;;;;;;;;;;;;8.40;73.67;96642.33;110423;1240;69686;-62
2024/02/23 06:52:34;;;;;;;;;;;;;;;8.57;73.21;96643.63;110360;1238;69836;-62
2024/02/23 06:55:03;;;;;;;;;;;;;;;8.72;72.95;96646.33;110378;1241;60595;-61
2024/02/23 06:57:32;;;;;;;;;;;;;;;8.88;71.15;96648.38;110341;1238;60460;-61
2024/02/23 07:00:01;;;;;;;;;;;;;;;9.09;71.35;96652.60;110345;1245;72734;-61
2024/02/23 07:02:34;;;;;;;;;;;;;;;9.35;68.38;96655.94;110430;1238;69029;-59
2024/02/23 07:05:06;;;;;;;;;;;;;;;9.61;71.19;96656.83;110449;1244;69101;-60
2024/02/23 07:07:35;;;;;;;;;;;;;;;9.83;70.92;96656.98;110385;1241;60538;-60
2024/02/23 07:10:04;;;;;;;;;;;;;;;9.97;67.49;96659.27;110401;1240;60537;-60
2024/02/23 07:12:33;;;;;;;;;;;;;;;10.08;68.59;96660.42;110395;1241;71681;-60
2024/02/23 07:15:01;;;;;;;;;;;;;;;10.12;66.76;96660.84;110403;1242;69172;-61
2024/02/23 07:17:30;;;;;;;;;;;;;;;10.08;66.63;96659.19;110377;1241;69286;-60
2024/02/23 07:20:05;;;;;;;;;;;;;;;10.07;64.68;96661.05;110378;1240;60529;-60
2024/02/23 07:22:36;;;;;;;;;;;;;;;10.11;64.66;96661.05;110398;1241;60478;-60
2024/02/23 07:25:05;;;;;;;;;;;;;;;10.10;65.14;96662.50;110446;1240;72633;-60
2024/02/23 07:27:35;;;;;;;;;;;;;;;10.06;65.26;96663.73;110499;1242;69792;-60
2024/02/23 07:30:04;;;;;;;;;;;;;;;10.03;64.49;96660.88;110421;1241;69264;-62
2024/02/23 07:32:33;;;;;;;;;;;;;;;10.05;64.30;96660.51;110445;1238;60488;-61
2024/02/23 07:35:03;;;;;;;;;;;;;;;9.98;62.17;96661.05;110450;1240;60462;-61
2024/02/23 07:37:32;;;;;;;;;;;;;;;9.92;62.77;96658.83;110444;1241;72382;-60
2024/02/23 07:40:02;;;;;;;;;;;;;;;9.89;62.68;96658.89;110456;1241;69734;-59
2024/02/23 07:42:32;;;;;;;;;;;;;;;9.90;63.43;96659.47;110409;1241;69217;-60
2024/02/23 07:45:00;;;;;;;;;;;;;;;9.93;63.61;96657.30;110410;1240;60500;-60
2024/02/23 07:47:30;;;;;;;;;;;;;;;10.00;63.60;96658.73;110416;1240;60478;-61
2024/02/23 07:49:59;;;;;;;;;;;;;;;10.03;63.01;96662.04;110612;1241;71579;-62
2024/02/23 07:52:28;;;;;;;;;;;;;;;10.04;62.22;96662.33;110589;1241;69884;-62
2024/02/23 07:54:56;;;;;;;;;;;;;;;10.02;61.97;96671.56;110371;1248;69519;-61
2024/02/23 07:57:25;;;;;;;;;;;;;;;10.08;62.88;96670.15;110421;1241;60486;-61
2024/02/23 07:59:54;;;;;;;;;;;;;;;10.16;63.00;96671.61;110418;1241;60431;-61
2024/02/23 08:02:23;;;;;;;;;;;;;;;10.23;62.16;96673.81;110569;1238;72504;-66
2024/02/23 08:04:52;;;;;;;;;;;;;;;10.37;61.61;96672.50;110417;1238;69671;-62
2024/02/23 08:07:22;;;;;;;;;;;;;;;10.53;59.58;96671.73;110452;1247;69849;-61
2024/02/23 08:09:51;;;;;;;;;;;;;;;10.80;59.31;96674.66;110428;1241;60612;-62
2024/02/23 08:12:20;;;;;;;;;;;;;;;11.15;59.20;96674.08;110388;1242;60496;-62
2024/02/23 08:14:53;;;;;;;;;;;;;;;11.42;57.51;96680.06;110459;1238;72778;-61
2024/02/23 08:17:21;;;;;;;;;;;;;;;11.59;55.99;96682.09;110525;1241;69852;-62
2024/02/23 08:19:50;;;;;;;;;;;;;;;11.63;55.41;96682.61;110504;1241;69219;-61
2024/02/23 08:22:19;;;;;;;;;;;;;;;11.62;55.39;96681.45;110496;1248;60550;-61
2024/02/23 08:24:48;;;;;;;;;;;;;;;11.68;56.30;96679.73;110485;1240;60496;-61
2024/02/23 08:27:17;;;;;;;;;;;;;;;11.83;56.47;96682.92;110525;1240;71941;-61
2024/02/23 08:29:46;;;;;;;;;;;;;;;11.90;55.60;96676.55;110309;1239;69269;-61
2024/02/23 08:32:15;;;;;;;;;;;;;;;11.95;55.15;96674.21;110500;1238;69220;-61
2024/02/23 08:34:43;;;;;;;;;;;;;;;11.98;55.17;96671.64;110459;1238;60548;-62
2024/02/23 08:37:12;;;;;;;;;;;;;;;12.03;55.07;96671.54;110547;1240;60456;-63
2024/02/23 08:39:41;;;;;;;;;;;;;;;12.22;55.44;96673.02;110463;1238;72472;-62
2024/02/23 08:42:10;;;;;;;;;;;;;;;12.40;55.07;96672.58;110464;1241;69252;-59
2024/02/23 08:44:39;;;;;;;;;;;;;;;12.46;54.35;96674.95;110377;1238;70054;-60
2024/02/23 08:47:08;;;;;;;;;;;;;;;12.56;53.46;96675.77;110449;1240;60537;-62
2024/02/23 08:49:37;;;;;;;;;;;;;;;12.67;53.51;96675.63;110407;1242;60402;-61
2024/02/23 08:52:06;;;;;;;;;;;;;;;12.74;53.03;96678.13;110488;1241;72142;-62
2024/02/23 08:54:34;;;;;;;;;;;;;;;12.79;52.87;96681.72;110442;1241;68645;-61
2024/02/23 08:57:04;;;;;;;;;;;;;;;12.89;52.96;96685.28;110479;1241;69052;-61
2024/02/23 08:59:32;;;;;;;;;;;;;;;13.03;51.99;96693.08;110390;1241;60515;-61
2024/02/23 09:02:02;;;;;;;;;;;;;;;12.96;51.36;96688.46;110380;1241;60494;-61
2024/02/23 09:04:31;;;;;;;;;;;;;;;13.05;51.31;96691.91;110491;1242;72740;-60
2024/02/23 09:07:00;;;;;;;;;;;;;;;13.13;50.77;96690.94;110452;1238;69942;-61
2024/02/23 09:09:29;;;;;;;;;;;;;;;13.15;49.65;96690.73;110384;1238;69282;-61
2024/02/23 09:11:58;;;;;;;;;;;;;;;12.84;50.47;96690.67;110389;1240;60540;-61
2024/02/23 09:14:27;;;;;;;;;;;;;;;13.04;50.03;96695.61;110388;1241;60543;-61
2024/02/23 09:16:56;;;;;;;;;;;;;;;12.69;51.02;96695.33;110384;1241;72601;-62
2024/02/23 09:19:25;;;;;;;;;;;;;;;12.79;51.12;96694.78;110408;1241;69164;-60
2024/02/23 09:21:54;;;;;;;;;;;;;;;12.78;50.89;96697.29;110246;1238;69250;-60
2024/02/23 09:24:23;;;;;;;;;;;;;;;12.80;50.86;96700.77;110492;1241;60545;-62
2024/02/23 09:26:52;;;;;;;;;;;;;;;12.57;51.41;96703.48;110418;1240;60480;-62
2024/02/23 09:29:21;;;;;;;;;;;;;;;12.70;51.95;96705.40;110399;1238;71768;-60
2024/02/23 09:31:50;;;;;;;;;;;;;;;12.68;51.88;96708.55;110400;1238;69033;-62
2024/02/23 09:34:19;;;;;;;;;;;;;;;12.63;52.40;96707.34;110411;1240;69248;-60
2024/02/23 09:36:48;;;;;;;;;;;;;;;12.75;52.40;96708.94;110418;1241;60548;-60
2024/02/23 09:39:17;;;;;;;;;;;;;;;12.65;53.28;96706.94;110390;1242;60491;-60
2024/02/23 09:41:50;;;;;;;;;;;;;;;12.59;53.98;96704.67;110388;1242;72189;-60
2024/02/23 09:44:20;;;;;;;;;;;;;;;12.80;53.16;96705.91;110344;1238;68471;-60
2024/02/23 09:46:50;;;;;;;;;;;;;;;12.61;53.48;96705.56;110316;1240;69960;-59
2024/02/23 09:49:19;;;;;;;;;;;;;;;12.77;53.85;96704.45;110397;1238;60556;-63
2024/02/23 09:51:48;;;;;;;;;;;;;;;12.63;53.86;96706.61;110385;1241;60488;-61
2024/02/23 09:54:17;;;;;;;;;;;;;;;12.56;53.77;96703.58;110456;1240;72936;-61
2024/02/23 09:56:48;;;;;;;;;;;;;;;12.78;54.27;96702.20;110472;1240;69892;-59
2024/02/23 09:59:17;;;;;;;;;;;;;;;12.83;53.77;96700.05;110495;1240;69727;-62
2024/02/23 10:01:47;;;;;;;;;;;;;;;12.79;53.71;96700.59;110348;1238;60462;-61
2024/02/23 10:04:16;;;;;;;;;;;;;;;12.52;54.57;96698.68;110381;1240;61021;-61
2024/02/23 10:06:45;;;;;;;;;;;;;;;12.56;54.40;96697.48;110381;1238;71842;-61
2024/02/23 10:09:14;;;;;;;;;;;;;;;12.53;53.88;96698.57;110418;1238;69266;-62
2024/02/23 10:11:43;;;;;;;;;;;;;;;12.49;54.01;96696.92;110364;1241;69888;-61
2024/02/23 10:14:11;;;;;;;;;;;;;;;12.59;54.75;96690.89;110504;1238;60563;-61
2024/02/23 10:16:40;;;;;;;;;;;;;;;12.70;54.02;96685.98;110492;1241;60427;-61
2024/02/23 10:19:09;;;;;;;;;;;;;;;12.73;53.61;96687.14;110407;1238;71921;-60
2024/02/23 10:21:38;;;;;;;;;;;;;;;12.96;55.18;96682.02;110366;1241;69069;-60
2024/02/23 10:24:07;;;;;;;;;;;;;;;13.26;55.20;96679.92;110371;1238;69196;-60
2024/02/23 10:26:35;;;;;;;;;;;;;;;13.56;54.68;96673.37;110444;1241;60537;-61
2024/02/23 10:29:04;;;;;;;;;;;;;;;13.83;54.07;96667.78;110438;1241;60537;-61
2024/02/23 10:31:35;;;;;;;;;;;;;;;14.11;52.58;96664.13;110355;1241;72050;-61
2024/02/23 10:34:09;;;;;;;;;;;;;;;14.40;52.10;96660.73;110378;1238;69214;-61
2024/02/23 10:36:45;;;;;;;;;;;;;;;14.77;51.51;96660.15;110418;1238;70080;-60
2024/02/23 10:39:16;;;;;;;;;;;;;;;15.24;52.58;96658.28;110361;1241;60536;-60
2024/02/23 10:41:47;;;;;;;;;;;;;;;15.53;50.36;96653.73;110395;1241;60482;-60
2024/02/23 10:44:17;;;;;;;;;;;;;;;15.74;51.72;96651.70;110434;1240;72846;-60
2024/02/23 10:46:46;;;;;;;;;;;;;;;15.75;49.22;96648.30;110374;1240;69694;-60
2024/02/23 10:49:16;;;;;;;;;;;;;;;15.75;48.53;96646.17;110404;1241;69887;-60
2024/02/23 10:51:47;;;;;;;;;;;;;;;15.73;48.50;96644.13;110373;1240;60522;-61
2024/02/23 10:54:19;;;;;;;;;;;;;;;15.77;50.50;96648.94;110378;1240;60433;-60
2024/02/23 10:56:53;;;;;;;;;;;;;;;15.59;48.25;96647.50;110390;1242;71201;-60
2024/02/23 10:59:22;;;;;;;;;;;;;;;15.41;48.97;96648.06;110341;1238;69120;-62
2024/02/23 11:01:52;;;;;;;;;;;;;;;15.20;48.33;96646.09;110392;1241;69307;-60
2024/02/23 11:04:22;;;;;;;;;;;;;;;15.10;49.63;96645.39;110245;1248;60841;-61
2024/02/23 11:06:51;;;;;;;;;;;;;;;15.03;49.20;96640.36;110496;1241;60490;-61
2024/02/23 11:09:21;;;;;;;;;;;;;;;14.93;49.97;96639.45;110399;1238;71653;-61
2024/02/23 11:11:54;;;;;;;;;;;;;;;14.86;50.23;96631.49;110429;1238;69837;-61
2024/02/23 11:14:30;;;;;;;;;;;;;;;14.73;50.00;96623.04;110366;1240;69145;-61
2024/02/23 11:17:00;;;;;;;;;;;;;;;14.63;49.70;96617.93;110399;1238;60509;-61
2024/02/23 11:19:36;;;;;;;;;;;;;;;14.54;49.42;96618.20;110424;1240;60500;-61
2024/02/23 11:22:09;;;;;;;;;;;;;;;14.47;49.26;96616.86;110496;1240;71631;-60
2024/02/23 11:24:50;;;;;;;;;;;;;;;14.57;49.64;96619.38;110534;1241;69643;-61
2024/02/23 11:27:24;;;;;;;;;;;;;;;14.88;49.65;96617.63;110488;1238;69871;-62
2024/02/23 11:30:00;;;;;;;;;;;;;;;15.22;48.84;96621.11;110461;1238;60476;-62
2024/02/23 11:32:42;;;;;;;;;;;;;;;15.45;47.40;96620.16;110437;1238;60533;-60
2024/02/23 11:35:12;;;;;;;;;;;;;;;15.58;47.53;96623.19;110427;1238;72019;-61
2024/02/23 11:37:47;;;;;;;;;;;;;;;15.81;47.24;96623.09;110561;1240;68612;-63
2024/02/23 11:40:19;;;;;;;;;;;;;;;15.90;46.64;96624.54;110422;1238;68248;-61
2024/02/23 11:42:49;;;;;;;;;;;;;;;15.91;46.56;96622.27;110419;1246;60550;-61
2024/02/23 11:45:17;;;;;;;;;;;;;;;15.92;46.73;96621.88;110401;1238;60536;-61
2024/02/23 11:47:46;;;;;;;;;;;;;;;16.02;46.38;96615.33;110457;1238;72016;-61
2024/02/23 11:50:19;;;;;;;;;;;;;;;16.07;44.84;96614.61;110379;1238;69571;-61
2024/02/23 11:52:48;;;;;;;;;;;;;;;15.88;43.85;96610.71;110368;1238;69202;-61
2024/02/23 11:55:23;;;;;;;;;;;;;;;15.69;44.11;96615.19;110419;1238;60541;-61
2024/02/23 11:57:52;;;;;;;;;;;;;;;15.53;43.92;96614.89;110467;1238;60517;-61
2024/02/23 12:00:35;;;;;;;;;;;;;;;15.36;44.18;96611.73;110361;1238;73124;-61
2024/02/23 12:03:05;;;;;;;;;;;;;;;15.21;44.64;96611.93;110392;1238;68489;-61
2024/02/23 12:05:33;;;;;;;;;;;;;;;15.20;44.99;96608.36;110396;1238;69274;-61
2024/02/23 12:08:03;;;;;;;;;;;;;;;15.16;45.10;96609.70;110359;1238;60499;-61
2024/02/23 12:10:32;;;;;;;;;;;;;;;15.09;44.88;96605.70;110405;1238;60922;-61
2024/02/23 12:13:00;;;;;;;;;;;;;;;14.99;45.07;96602.77;110392;1241;72774;-60
2024/02/23 12:15:30;;;;;;;;;;;;;;;14.96;45.31;96605.41;110399;1238;68607;-59
2024/02/23 12:18:00;;;;;;;;;;;;;;;14.91;44.96;96603.13;110387;1241;68482;-61
2024/02/23 12:20:32;;;;;;;;;;;;;;;14.83;44.95;96607.11;110504;1238;60426;-62
2024/02/23 12:23:01;;;;;;;;;;;;;;;14.79;45.38;96606.08;110418;1238;60546;-62
2024/02/23 12:25:30;;;;;;;;;;;;;;;14.75;45.45;96606.31;110381;1241;72002;-62
2024/02/23 12:28:03;;;;;;;;;;;;;;;14.74;45.44;96603.24;110379;1240;70218;-59
2024/02/23 12:30:33;;;;;;;;;;;;;;;14.69;44.84;96598.39;110388;1238;69707;-60
2024/02/23 12:33:05;;;;;;;;;;;;;;;14.66;44.71;96598.48;110380;1238;60570;-61
2024/02/23 12:35:35;;;;;;;;;;;;;;;14.64;43.92;96594.70;110358;1238;60508;-60
2024/02/23 12:38:04;;;;;;;;;;;;;;;14.70;44.91;96598.27;110406;1241;71882;-62
2024/02/23 12:40:33;;;;;;;;;;;;;;;14.70;43.88;96597.15;110396;1238;69647;-62
2024/02/23 12:43:02;;;;;;;;;;;;;;;14.69;44.27;96596.29;110329;1239;69592;-62
2024/02/23 12:45:31;;;;;;;;;;;;;;;14.70;44.03;96595.61;110447;1241;60570;-60
2024/02/23 12:47:59;;;;;;;;;;;;;;;14.73;44.04;96597.73;110450;1238;60525;-60
2024/02/23 12:50:31;;;;;;;;;;;;;;;14.73;43.41;96599.84;110385;1238;72377;-61
2024/02/23 12:53:01;;;;;;;;;;;;;;;14.71;42.13;96600.41;110504;1240;69861;-61